createdAt,value
2023-01-17T00:02:48.983Z,96660.09
2023-01-17T00:08:09.228Z,96648.75
2023-01-17T00:13:12.091Z,96661.19
2023-01-17T00:18:17.592Z,96661.47
2023-01-17T00:23:42.838Z,96671.63
2023-01-17T00:28:45.222Z,96657.25
2023-01-17T00:33:48.292Z,96660.25
2023-01-17T00:38:49.964Z,96663.47
2023-01-17T00:44:10.180Z,96663.41
2023-01-17T00:49:31.800Z,96678.63
2023-01-17T00:54:52.325Z,96678.09
2023-01-17T01:00:12.773Z,96678.50
2023-01-17T01:05:34.995Z,96685.00
2023-01-17T01:10:55.516Z,96688.78
2023-01-17T01:16:18.608Z,96688.09
2023-01-17T01:21:40.312Z,96699.00
2023-01-17T01:27:00.380Z,96705.09
2023-01-17T01:32:20.530Z,96706.03
2023-01-17T01:37:24.690Z,96698.78
2023-01-17T01:42:27.702Z,96700.56
2023-01-17T01:47:33.437Z,96703.44
2023-01-17T01:52:43.709Z,96714.91
2023-01-17T01:57:49.989Z,96715.91
2023-01-17T02:02:55.995Z,96720.28
2023-01-17T02:08:08.027Z,96722.84
2023-01-17T02:13:12.238Z,96728.06
2023-01-17T02:18:22.173Z,96735.84
2023-01-17T02:24:09.656Z,96730.53
2023-01-17T02:29:37.953Z,96747.31
2023-01-17T02:34:49.137Z,96748.50
2023-01-17T02:39:58.867Z,96744.63
2023-01-17T02:45:03.382Z,96744.44
2023-01-17T02:50:12.929Z,96756.06
2023-01-17T02:55:27.895Z,96757.09
2023-01-17T03:00:44.772Z,96760.31
2023-01-17T03:05:53.374Z,96762.16
2023-01-17T03:10:56.320Z,96776.59
2023-01-17T03:15:59.111Z,96774.09
2023-01-17T03:21:03.308Z,96784.00
2023-01-17T03:26:06.370Z,96787.22
2023-01-17T03:31:10.534Z,96801.84
2023-01-17T03:36:14.841Z,96798.50
2023-01-17T03:41:17.790Z,96801.38
2023-01-17T03:46:23.787Z,96805.91
2023-01-17T03:51:28.092Z,96819.66
2023-01-17T03:56:30.888Z,96821.69
2023-01-17T04:01:33.771Z,96831.59
2023-01-17T04:06:38.016Z,96840.00
2023-01-17T04:11:40.810Z,96841.00
2023-01-17T04:16:43.801Z,96858.31
2023-01-17T04:21:47.970Z,96858.13
2023-01-17T04:26:50.767Z,96872.38
2023-01-17T04:31:53.561Z,96862.66
2023-01-17T04:36:57.696Z,96867.53
2023-01-17T04:42:00.604Z,96879.47
2023-01-17T04:47:03.576Z,96882.25
2023-01-17T04:52:07.824Z,96889.84
2023-01-17T04:57:10.660Z,96897.91
2023-01-17T05:02:14.364Z,96892.88
2023-01-17T05:07:18.621Z,96899.25
2023-01-17T05:12:21.559Z,96904.97
2023-01-17T05:17:24.338Z,96905.97
2023-01-17T05:22:28.564Z,96936.28
2023-01-17T05:27:31.295Z,96932.13
2023-01-17T05:32:34.098Z,96960.78
2023-01-17T05:37:38.254Z,96967.00
2023-01-17T05:42:46.139Z,96969.03
2023-01-17T05:47:50.877Z,96976.25
2023-01-17T05:52:56.895Z,96977.22
2023-01-17T05:58:00.151Z,96996.66
2023-01-17T06:03:02.983Z,97003.19
2023-01-17T06:08:07.298Z,97011.25
2023-01-17T06:13:12.458Z,97014.09
2023-01-17T06:18:17.280Z,97031.03
2023-01-17T06:23:22.039Z,97051.13
2023-01-17T06:28:25.335Z,97043.94
2023-01-17T06:33:28.129Z,97055.53
2023-01-17T06:38:32.356Z,97062.88
2023-01-17T06:43:35.320Z,97068.25
2023-01-17T06:48:38.095Z,97082.66
2023-01-17T06:53:42.797Z,97088.84
2023-01-17T06:58:45.608Z,97095.06
2023-01-17T07:03:48.638Z,97094.41
2023-01-17T07:08:53.747Z,97116.88
2023-01-17T07:13:56.471Z,97113.66
2023-01-17T07:18:59.392Z,97115.50
2023-01-17T07:24:03.540Z,97112.19
2023-01-17T07:29:06.830Z,97125.59
2023-01-17T07:34:09.979Z,97140.81
2023-01-17T07:39:14.303Z,97136.63
2023-01-17T07:44:17.375Z,97137.28
2023-01-17T07:49:20.144Z,97140.16
2023-01-17T07:54:24.251Z,97149.03
2023-01-17T07:59:27.033Z,97138.66
2023-01-17T08:04:34.590Z,97153.38
2023-01-17T08:09:38.754Z,97153.03
2023-01-17T08:14:41.552Z,97148.03
2023-01-17T08:19:44.751Z,97146.50
2023-01-17T08:24:48.945Z,97171.47
2023-01-17T08:29:52.052Z,97200.97
2023-01-17T08:34:56.480Z,97186.81
2023-01-17T08:40:00.680Z,97191.25
2023-01-17T08:45:03.545Z,97203.50
2023-01-17T08:50:07.340Z,97203.31
2023-01-17T08:55:11.735Z,97207.63
2023-01-17T09:00:15.273Z,97213.47
2023-01-17T09:05:18.123Z,97227.22
2023-01-17T09:10:23.577Z,97241.81
2023-01-17T09:15:26.544Z,97240.97
2023-01-17T09:20:30.836Z,97261.06
2023-01-17T09:25:35.137Z,97257.41
2023-01-17T09:30:37.965Z,97269.16
2023-01-17T09:35:40.990Z,97267.97
2023-01-17T09:40:48.455Z,97271.34
2023-01-17T09:45:51.429Z,97275.03
2023-01-17T09:51:01.804Z,97273.22
2023-01-17T09:56:12.372Z,97284.59
2023-01-17T10:01:22.855Z,97300.72
2023-01-17T10:06:53.903Z,97293.34
2023-01-17T10:12:14.638Z,97294.38
2023-01-17T10:17:31.421Z,97297.69
2023-01-17T10:22:51.217Z,97305.28
2023-01-17T10:27:59.261Z,97300.06
2023-01-17T10:33:07.599Z,97296.03
2023-01-17T10:38:14.884Z,97290.34
2023-01-17T10:43:25.607Z,97293.16
2023-01-17T10:48:38.756Z,97292.84
2023-01-17T10:53:54.558Z,97292.50
2023-01-17T10:59:17.287Z,97288.31
2023-01-17T11:04:22.659Z,97296.03
2023-01-17T11:09:38.932Z,97283.97
2023-01-17T11:14:53.662Z,97286.47
2023-01-17T11:20:09.249Z,97277.06
2023-01-17T11:25:22.272Z,97281.94
2023-01-17T11:30:29.376Z,97281.75
2023-01-17T11:35:33.633Z,97277.88
2023-01-17T11:40:40.518Z,97271.53
2023-01-17T11:45:44.764Z,97271.66
2023-01-17T11:50:56.204Z,97269.66
2023-01-17T11:56:06.393Z,97283.09
2023-01-17T12:01:34.208Z,97292.28
2023-01-17T12:06:57.228Z,97284.41
2023-01-17T12:12:25.758Z,97286.91
2023-01-17T12:17:49.811Z,97292.59
2023-01-17T12:23:14.864Z,97291.78
2023-01-17T12:28:44.590Z,97301.66
2023-01-17T12:33:55.766Z,97303.84
2023-01-17T12:39:03.023Z,97314.09
2023-01-17T12:44:06.335Z,97319.78
2023-01-17T12:49:23.646Z,97330.03
2023-01-17T12:54:32.349Z,97326.03
2023-01-17T12:59:41.911Z,97322.00
2023-01-17T13:04:58.839Z,97321.31
2023-01-17T13:10:20.331Z,97329.06
2023-01-17T13:15:27.705Z,97338.09
2023-01-17T13:20:50.525Z,97339.47
2023-01-17T13:25:53.416Z,97340.28
2023-01-17T13:31:19.180Z,97349.19
2023-01-17T13:36:39.176Z,97361.44
2023-01-17T13:41:51.365Z,97363.31
2023-01-17T13:47:06.659Z,97363.81
2023-01-17T13:52:28.492Z,97362.13
2023-01-17T13:57:40.073Z,97366.84
2023-01-17T14:02:43.919Z,97365.16
2023-01-17T14:07:55.872Z,97369.34
2023-01-17T14:12:59.604Z,97369.34
2023-01-17T14:18:04.070Z,97385.41
2023-01-17T14:23:33.861Z,97386.34
2023-01-17T14:28:36.671Z,97387.75
2023-01-17T14:33:41.564Z,97389.28
2023-01-17T14:38:46.099Z,97395.00
2023-01-17T14:43:50.412Z,97400.69
2023-01-17T14:49:00.329Z,97399.19
2023-01-17T14:54:19.180Z,97394.34
2023-01-17T14:59:22.879Z,97390.34
2023-01-17T15:04:28.297Z,97390.16
2023-01-17T15:09:36.514Z,97396.53
2023-01-17T15:14:44.000Z,97399.72
2023-01-17T15:19:54.064Z,97401.06
2023-01-17T15:24:59.272Z,97404.41
2023-01-17T15:30:03.984Z,97401.56
2023-01-17T15:35:07.871Z,97405.09
2023-01-17T15:40:19.101Z,97402.06
2023-01-17T15:45:26.076Z,97406.25
2023-01-17T15:50:32.055Z,97411.94
2023-01-17T15:55:38.805Z,97415.13
2023-01-17T16:00:44.245Z,97426.06
2023-01-17T16:05:47.588Z,97428.25
2023-01-17T16:10:54.923Z,97419.03
2023-01-17T16:16:18.873Z,97418.03
2023-01-17T16:21:24.633Z,97433.81
2023-01-17T16:26:29.009Z,97430.47
2023-01-17T16:31:32.454Z,97432.63
2023-01-17T16:36:36.815Z,97419.88
2023-01-17T16:41:40.984Z,97407.47
2023-01-17T16:46:43.746Z,97419.69
2023-01-17T16:51:47.321Z,97416.69
2023-01-17T16:56:51.448Z,97411.47
2023-01-17T17:01:54.841Z,97416.97
2023-01-17T17:06:57.631Z,97405.41
2023-01-17T17:12:01.932Z,97417.16
2023-01-17T17:17:04.676Z,97429.75
2023-01-17T17:22:07.484Z,97412.94
2023-01-17T17:27:11.770Z,97416.69
2023-01-17T17:32:14.674Z,97414.97
2023-01-17T17:37:17.839Z,97413.47
2023-01-17T17:42:22.071Z,97407.06
2023-01-17T17:47:25.004Z,97412.16
2023-01-17T17:52:28.038Z,97406.88
2023-01-17T17:57:32.320Z,97408.34
2023-01-17T18:02:35.255Z,97419.22
2023-01-17T18:07:38.027Z,97429.66
2023-01-17T18:12:42.165Z,97425.09
2023-01-17T18:17:45.285Z,97432.28
2023-01-17T18:22:48.140Z,97432.13
2023-01-17T18:27:52.656Z,97434.13
2023-01-17T18:32:55.621Z,97429.25
2023-01-17T18:37:59.891Z,97432.91
2023-01-17T18:43:04.071Z,97434.44
2023-01-17T18:48:07.146Z,97433.22
2023-01-17T18:53:10.046Z,97432.91
2023-01-17T18:58:14.180Z,97428.66
2023-01-17T19:03:18.792Z,97425.78
2023-01-17T19:08:21.802Z,97427.31
2023-01-17T19:13:26.026Z,97429.28
2023-01-17T19:18:29.586Z,97423.53
2023-01-17T19:23:32.418Z,97440.38
2023-01-17T19:28:38.610Z,97436.28
2023-01-17T19:33:43.745Z,97445.03
2023-01-17T19:38:58.680Z,97467.22
2023-01-17T19:44:08.839Z,97476.13
2023-01-17T19:49:11.722Z,97471.25
2023-01-17T19:54:15.159Z,97476.25
2023-01-17T19:59:20.100Z,97495.59
2023-01-17T20:04:22.940Z,97503.50
2023-01-17T20:09:25.699Z,97509.56
2023-01-17T20:14:29.807Z,97519.13
2023-01-17T20:19:33.534Z,97518.28
2023-01-17T20:24:36.461Z,97514.25
2023-01-17T20:29:40.742Z,97521.31
2023-01-17T20:34:45.400Z,97523.81
2023-01-17T20:39:48.484Z,97527.19
2023-01-17T20:44:52.698Z,97530.72
2023-01-17T20:49:55.468Z,97534.25
2023-01-17T20:54:58.216Z,97544.00
2023-01-17T21:00:02.369Z,97532.19
2023-01-17T21:05:05.929Z,97535.53
2023-01-17T21:10:09.703Z,97540.94
2023-01-17T21:15:17.322Z,97532.84
2023-01-17T21:20:20.153Z,97534.19
2023-01-17T21:25:22.991Z,97531.66
2023-01-17T21:30:27.167Z,97549.50
2023-01-17T21:35:31.633Z,97552.88
2023-01-17T21:40:34.955Z,97545.47
2023-01-17T21:45:39.848Z,97555.41
2023-01-17T21:50:42.680Z,97547.16
2023-01-17T21:56:03.182Z,97551.72
2023-01-17T22:01:18.135Z,97552.53
2023-01-17T22:06:22.302Z,97534.53
2023-01-17T22:11:27.339Z,97543.81
2023-01-17T22:16:31.675Z,97536.88
2023-01-17T22:21:34.427Z,97535.72
2023-01-17T22:26:37.269Z,97527.00
2023-01-17T22:31:41.365Z,97512.38
2023-01-17T22:36:45.059Z,97499.75
2023-01-17T22:41:47.925Z,97498.59
2023-01-17T22:46:52.124Z,97504.03
2023-01-17T22:51:54.923Z,97481.84
2023-01-17T22:56:58.708Z,97479.31
2023-01-17T23:02:02.900Z,97471.44
2023-01-17T23:07:05.702Z,97460.16
2023-01-17T23:12:08.820Z,97468.25
2023-01-17T23:17:41.805Z,97459.34
2023-01-17T23:22:44.844Z,97453.13
2023-01-17T23:28:17.455Z,97453.94
2023-01-17T23:33:21.597Z,97433.97
2023-01-17T23:38:29.012Z,97424.03
2023-01-17T23:43:31.853Z,97424.03
2023-01-17T23:48:35.941Z,97432.09
2023-01-17T23:53:40.569Z,97435.97
2023-01-17T23:58:43.462Z,97444.22
